Time;durP1;ratioP1;P1;durP2;ratioP2;P2;SDS_P1;SDS_P2;PMS_P1;PMS_P2;Temp;Humidity;BMP_temperature;BMP_pressure;BME280_temperature;BME280_humidity;BME280_pressure;Samples;Min_cycle;Max_cycle;Signal;HPM_P1;HPM_P2
2023/07/05 00:01:45;;;;;;;0.20;0.20;;;16.30;99.90;;;;;;5031096;28;20045;-75
2023/07/05 00:04:10;;;;;;;0.20;0.20;;;16.20;99.90;;;;;;5049016;28;20103;-74
2023/07/05 00:06:36;;;;;;;0.20;0.20;;;16.20;99.90;;;;;;5033481;28;20131;-74
2023/07/05 00:09:02;;;;;;;0.20;0.20;;;16.20;99.90;;;;;;5035121;28;20115;-75
2023/07/05 00:11:28;;;;;;;0.20;0.20;;;16.10;99.90;;;;;;5051199;28;20481;-75
2023/07/05 00:13:54;;;;;;;0.10;0.10;;;16.10;99.90;;;;;;5051986;28;20396;-74
2023/07/05 00:16:21;;;;;;;0.20;0.20;;;16.10;99.90;;;;;;5035468;28;20056;-75
2023/07/05 00:18:46;;;;;;;0.10;0.10;;;16.00;99.90;;;;;;5028559;28;20144;-74
2023/07/05 00:21:12;;;;;;;0.13;0.13;;;16.00;99.90;;;;;;5033970;28;20120;-75
2023/07/05 00:23:40;;;;;;;0.20;0.20;;;16.00;99.90;;;;;;5029062;28;20700;-75
2023/07/05 00:26:07;;;;;;;0.20;0.20;;;16.00;99.90;;;;;;5048152;28;20048;-76
2023/07/05 00:28:33;;;;;;;0.10;0.10;;;15.90;99.90;;;;;;5031516;28;20045;-76
2023/07/05 00:31:00;;;;;;;0.10;0.10;;;15.90;99.90;;;;;;5034244;28;20490;-76
2023/07/05 00:33:27;;;;;;;0.10;0.10;;;15.90;99.90;;;;;;5052350;28;20047;-76
2023/07/05 00:35:54;;;;;;;0.13;0.13;;;15.90;99.90;;;;;;5047405;28;20045;-75
2023/07/05 00:38:21;;;;;;;0.10;0.10;;;15.80;99.90;;;;;;5030793;28;20061;-75
2023/07/05 00:40:48;;;;;;;0.13;0.13;;;15.80;99.90;;;;;;5051106;28;20044;-73
2023/07/05 00:43:15;;;;;;;0.10;0.10;;;15.80;99.90;;;;;;5027971;28;20051;-76
2023/07/05 00:45:56;;;;;;;0.20;0.20;;;15.80;99.90;;;;;;5049746;28;20055;-76
2023/07/05 00:48:38;;;;;;;0.20;0.20;;;15.80;99.90;;;;;;5027765;28;20163;-76
2023/07/05 00:51:28;;;;;;;0.10;0.10;;;15.70;99.90;;;;;;5031769;28;20094;-75
2023/07/05 00:53:58;;;;;;;0.20;0.20;;;15.70;99.90;;;;;;5019721;28;20037;-77
2023/07/05 00:56:28;;;;;;;0.10;0.10;;;15.70;99.90;;;;;;5030291;28;20049;-75
2023/07/05 00:58:56;;;;;;;0.10;0.10;;;15.60;99.90;;;;;;5047185;28;20063;-76
2023/07/05 01:01:22;;;;;;;0.20;0.20;;;15.60;99.90;;;;;;5029120;28;20194;-75
2023/07/05 01:03:52;;;;;;;0.10;0.10;;;15.60;99.90;;;;;;5050555;28;20061;-76
2023/07/05 01:06:22;;;;;;;0.20;0.20;;;15.50;99.90;;;;;;5031656;28;20175;-76
2023/07/05 01:08:49;;;;;;;0.20;0.20;;;15.60;99.90;;;;;;5046912;28;20049;-76
2023/07/05 01:11:27;;;;;;;0.10;0.10;;;15.50;99.90;;;;;;5024413;28;20057;-76
2023/07/05 01:14:10;;;;;;;0.10;0.10;;;15.50;99.90;;;;;;5042845;28;20056;-76
2023/07/05 01:16:48;;;;;;;0.20;0.20;;;15.50;99.90;;;;;;5046283;28;20431;-77
2023/07/05 01:19:14;;;;;;;0.10;0.10;;;15.50;99.90;;;;;;5050541;28;20126;-76
2023/07/05 01:21:49;;;;;;;0.20;0.20;;;15.50;99.90;;;;;;5032426;28;20098;-76
2023/07/05 01:24:40;;;;;;;0.20;0.20;;;15.50;99.90;;;;;;5029580;28;20041;-77
2023/07/05 01:27:28;;;;;;;0.20;0.20;;;15.50;99.90;;;;;;5027398;28;20413;-75
2023/07/05 01:30:21;;;;;;;0.20;0.20;;;15.50;99.90;;;;;;5026508;28;20487;-74
2023/07/05 01:33:02;;;;;;;0.10;0.10;;;15.50;99.90;;;;;;5043518;28;20080;-75
2023/07/05 01:35:44;;;;;;;0.10;0.10;;;15.50;99.90;;;;;;5048396;28;20102;-73
2023/07/05 01:38:10;;;;;;;0.10;0.10;;;15.50;99.90;;;;;;5044771;28;20037;-74
2023/07/05 01:40:36;;;;;;;0.10;0.10;;;15.50;99.90;;;;;;5048624;28;20041;-74
2023/07/05 01:43:09;;;;;;;0.20;0.20;;;15.50;99.90;;;;;;5042417;28;20115;-74
2023/07/05 01:45:44;;;;;;;0.20;0.20;;;15.50;99.90;;;;;;5045854;28;20048;-75
2023/07/05 01:48:21;;;;;;;0.10;0.10;;;15.50;99.90;;;;;;5039369;28;20128;-74
2023/07/05 01:50:54;;;;;;;0.20;0.20;;;15.50;99.90;;;;;;5049718;28;20112;-75
2023/07/05 01:53:47;;;;;;;0.20;0.20;;;15.50;99.90;;;;;;5050490;28;20052;-76
2023/07/05 01:56:20;;;;;;;0.10;0.10;;;15.50;99.90;;;;;;5041184;28;20045;-75
2023/07/05 01:58:49;;;;;;;0.17;0.17;;;15.50;99.90;;;;;;5046574;28;20124;-75
2023/07/05 02:01:17;;;;;;;0.20;0.20;;;15.50;99.90;;;;;;5048368;28;20068;-74
2023/07/05 02:03:45;;;;;;;0.10;0.10;;;15.50;99.90;;;;;;5048993;28;20041;-74
2023/07/05 02:06:11;;;;;;;0.20;0.20;;;15.50;99.90;;;;;;5051110;28;20044;-75
2023/07/05 02:08:43;;;;;;;0.15;0.15;;;15.50;99.90;;;;;;5049381;28;20045;-75
2023/07/05 02:11:09;;;;;;;0.10;0.10;;;15.50;99.90;;;;;;5031590;28;20191;-75
2023/07/05 02:13:35;;;;;;;0.20;0.20;;;15.40;99.90;;;;;;5042337;28;20604;-75
2023/07/05 02:16:01;;;;;;;0.20;0.20;;;15.40;99.90;;;;;;5046062;28;20049;-75
2023/07/05 02:18:29;;;;;;;0.10;0.10;;;15.40;99.90;;;;;;5043417;28;20045;-75
2023/07/05 02:20:55;;;;;;;0.20;0.20;;;15.40;99.90;;;;;;5040343;28;20075;-76
2023/07/05 02:23:22;;;;;;;0.10;0.10;;;15.30;99.90;;;;;;5042074;28;20048;-75
2023/07/05 02:25:50;;;;;;;0.10;0.10;;;15.30;99.90;;;;;;5047494;28;20060;-76
2023/07/05 02:28:16;;;;;;;0.20;0.20;;;15.30;99.90;;;;;;5046921;28;20045;-75
2023/07/05 02:30:42;;;;;;;0.20;0.20;;;15.20;99.90;;;;;;5050858;28;20055;-75
2023/07/05 02:33:08;;;;;;;0.10;0.10;;;15.20;99.90;;;;;;5049187;28;20048;-77
2023/07/05 02:35:35;;;;;;;0.10;0.10;;;15.20;99.90;;;;;;5033077;28;20080;-76
2023/07/05 02:38:01;;;;;;;0.20;0.20;;;15.20;99.90;;;;;;5032310;28;20044;-76
2023/07/05 02:40:27;;;;;;;0.20;0.20;;;15.20;99.90;;;;;;5032406;28;20040;-77
2023/07/05 02:42:52;;;;;;;0.20;0.20;;;15.20;99.90;;;;;;5031812;28;20618;-76
2023/07/05 02:45:18;;;;;;;0.17;0.17;;;15.20;99.90;;;;;;5049512;28;20037;-76
2023/07/05 02:47:44;;;;;;;0.10;0.10;;;15.20;99.90;;;;;;5048692;28;20392;-76
2023/07/05 02:50:10;;;;;;;0.20;0.20;;;15.10;99.90;;;;;;5050972;28;20041;-76
2023/07/05 02:52:35;;;;;;;0.20;0.20;;;15.10;99.90;;;;;;5030637;28;20037;-75
2023/07/05 02:55:01;;;;;;;0.20;0.20;;;15.10;99.90;;;;;;5048389;28;20037;-76
2023/07/05 02:57:27;;;;;;;0.20;0.20;;;15.10;99.90;;;;;;5031070;28;20705;-76
2023/07/05 02:59:52;;;;;;;0.20;0.20;;;15.10;99.90;;;;;;5046881;28;20033;-75
2023/07/05 03:02:18;;;;;;;0.20;0.20;;;15.10;99.90;;;;;;5029134;28;20045;-75
2023/07/05 03:04:45;;;;;;;0.20;0.20;;;15.20;99.90;;;;;;5049365;28;20068;-76
2023/07/05 03:07:11;;;;;;;0.20;0.20;;;15.10;99.90;;;;;;5030913;28;20640;-76
2023/07/05 03:09:36;;;;;;;0.20;0.20;;;15.10;99.90;;;;;;5049595;28;20044;-76
2023/07/05 03:12:02;;;;;;;0.20;0.20;;;15.10;99.90;;;;;;5032102;28;20099;-76
2023/07/05 03:14:28;;;;;;;0.10;0.10;;;15.20;99.90;;;;;;5041754;28;20123;-76
2023/07/05 03:16:54;;;;;;;0.20;0.20;;;15.10;99.90;;;;;;5028696;28;22627;-76
2023/07/05 03:19:19;;;;;;;0.20;0.20;;;15.10;99.90;;;;;;5037792;28;20033;-76
2023/07/05 03:21:47;;;;;;;0.17;0.17;;;15.10;99.90;;;;;;5050047;28;20040;-75
2023/07/05 03:24:12;;;;;;;0.20;0.20;;;15.10;99.90;;;;;;5026380;28;20477;-75
2023/07/05 03:26:38;;;;;;;0.17;0.17;;;15.10;99.90;;;;;;5022166;28;20049;-76
2023/07/05 03:29:05;;;;;;;0.20;0.20;;;15.10;99.90;;;;;;5024648;28;20041;-75
2023/07/05 03:31:31;;;;;;;0.20;0.20;;;15.00;99.90;;;;;;5030384;28;20059;-74
2023/07/05 03:33:57;;;;;;;0.20;0.20;;;15.00;99.90;;;;;;5043052;28;20051;-75
2023/07/05 03:36:23;;;;;;;0.10;0.10;;;14.90;99.90;;;;;;5047197;28;20116;-75
2023/07/05 03:38:50;;;;;;;0.20;0.20;;;14.90;99.90;;;;;;5048808;28;20045;-75
2023/07/05 03:41:18;;;;;;;0.20;0.20;;;14.90;99.90;;;;;;5049789;28;20041;-75
2023/07/05 03:43:47;;;;;;;0.17;0.17;;;14.90;99.90;;;;;;5046177;28;20039;-74
2023/07/05 03:46:14;;;;;;;0.10;0.10;;;14.90;99.90;;;;;;5049127;28;20080;-75
2023/07/05 03:48:42;;;;;;;0.20;0.20;;;14.90;99.90;;;;;;5047379;28;20136;-75
2023/07/05 03:51:18;;;;;;;0.10;0.10;;;14.90;99.90;;;;;;5049541;28;20568;-75
2023/07/05 03:53:48;;;;;;;0.20;0.20;;;14.80;99.90;;;;;;5046894;28;20120;-76
2023/07/05 03:56:22;;;;;;;0.20;0.20;;;14.80;99.90;;;;;;5049175;28;20057;-75
2023/07/05 03:58:48;;;;;;;0.10;0.10;;;14.80;99.90;;;;;;5044515;28;20049;-75
2023/07/05 04:01:17;;;;;;;0.13;0.13;;;14.70;99.90;;;;;;5046903;28;20056;-76
2023/07/05 04:03:45;;;;;;;0.20;0.20;;;14.80;99.90;;;;;;5047708;28;20049;-76
2023/07/05 04:06:15;;;;;;;0.20;0.20;;;14.70;99.90;;;;;;5046934;28;20504;-76
2023/07/05 04:08:41;;;;;;;0.10;0.10;;;14.80;99.90;;;;;;5048355;28;20045;-75
2023/07/05 04:11:07;;;;;;;0.20;0.20;;;14.80;99.90;;;;;;5048432;28;20496;-75
2023/07/05 04:13:33;;;;;;;0.10;0.10;;;14.80;99.90;;;;;;5043986;28;20053;-75
2023/07/05 04:15:59;;;;;;;0.17;0.17;;;14.70;99.90;;;;;;5046774;28;20048;-75
2023/07/05 04:18:26;;;;;;;0.20;0.20;;;14.80;99.90;;;;;;5047295;28;20110;-74
2023/07/05 04:20:52;;;;;;;0.10;0.10;;;14.60;99.90;;;;;;5040539;28;20048;-76
2023/07/05 04:23:17;;;;;;;0.10;0.10;;;14.70;99.90;;;;;;5045565;28;20045;-76
2023/07/05 04:25:43;;;;;;;0.10;0.10;;;14.60;99.90;;;;;;5046067;28;20084;-75
2023/07/05 04:28:08;;;;;;;0.20;0.20;;;14.60;99.90;;;;;;5033547;28;20124;-76
2023/07/05 04:30:34;;;;;;;0.20;0.20;;;14.60;99.90;;;;;;5043940;28;20102;-76
2023/07/05 04:33:00;;;;;;;0.10;0.10;;;14.60;99.90;;;;;;5045883;28;20717;-77
2023/07/05 04:35:25;;;;;;;0.10;0.10;;;14.60;99.90;;;;;;5047028;28;20480;-76
2023/07/05 04:37:51;;;;;;;0.20;0.20;;;14.70;99.90;;;;;;5043462;28;20128;-76
2023/07/05 04:40:20;;;;;;;0.20;0.20;;;14.70;99.90;;;;;;5046736;28;20045;-77
2023/07/05 04:42:45;;;;;;;0.20;0.20;;;14.70;99.90;;;;;;5045025;28;20068;-76
2023/07/05 04:45:11;;;;;;;0.20;0.20;;;14.70;99.90;;;;;;5046834;28;20106;-76
2023/07/05 04:47:37;;;;;;;0.20;0.20;;;14.70;99.90;;;;;;5048239;28;20032;-76
2023/07/05 04:50:03;;;;;;;0.10;0.10;;;14.80;99.90;;;;;;5052551;28;20040;-78
2023/07/05 04:52:28;;;;;;;0.20;0.20;;;14.80;99.90;;;;;;5051106;28;20041;-77
2023/07/05 04:54:54;;;;;;;0.20;0.20;;;14.70;99.90;;;;;;5033412;28;20051;-76
2023/07/05 04:57:20;;;;;;;0.20;0.20;;;14.70;99.90;;;;;;5051897;28;20095;-75
2023/07/05 04:59:45;;;;;;;0.20;0.20;;;14.80;99.90;;;;;;5050495;28;20052;-76
2023/07/05 05:02:11;;;;;;;0.10;0.10;;;14.80;99.90;;;;;;5049645;28;20448;-77
2023/07/05 05:04:37;;;;;;;0.20;0.20;;;14.80;99.90;;;;;;5049723;28;20051;-78
2023/07/05 05:07:05;;;;;;;0.20;0.20;;;14.90;99.90;;;;;;5048272;28;20142;-77
2023/07/05 05:09:31;;;;;;;0.17;0.17;;;14.70;99.90;;;;;;5052802;28;20041;-77
2023/07/05 05:11:57;;;;;;;0.20;0.20;;;14.80;99.90;;;;;;5048770;28;20041;-77
2023/07/05 05:14:22;;;;;;;0.20;0.20;;;14.90;99.90;;;;;;5049960;28;20044;-76
2023/07/05 05:16:48;;;;;;;0.20;0.20;;;14.80;99.90;;;;;;5051179;28;20413;-79
2023/07/05 05:19:14;;;;;;;0.20;0.20;;;14.80;99.90;;;;;;5050890;28;20044;-77
2023/07/05 05:21:39;;;;;;;0.20;0.20;;;14.80;99.90;;;;;;5050971;28;20101;-77
2023/07/05 05:24:05;;;;;;;0.20;0.20;;;14.80;99.90;;;;;;5048216;28;20060;-77
2023/07/05 05:26:31;;;;;;;0.20;0.20;;;14.70;99.90;;;;;;5047815;28;20055;-78
2023/07/05 05:28:56;;;;;;;0.10;0.10;;;14.70;99.90;;;;;;5044683;28;20528;-77
2023/07/05 05:31:22;;;;;;;0.10;0.10;;;14.70;99.90;;;;;;5050611;28;20037;-76
2023/07/05 05:33:48;;;;;;;0.10;0.10;;;14.60;99.90;;;;;;5032979;28;20136;-76
2023/07/05 05:36:14;;;;;;;0.20;0.20;;;14.60;99.90;;;;;;5032043;28;20075;-77
2023/07/05 05:38:40;;;;;;;0.15;0.15;;;14.60;99.90;;;;;;5031458;28;20033;-76
2023/07/05 05:41:10;;;;;;;0.10;0.10;;;14.50;99.90;;;;;;5033017;28;20049;-77
2023/07/05 05:43:37;;;;;;;0.20;0.20;;;14.50;99.90;;;;;;5047796;28;20056;-76
2023/07/05 05:46:03;;;;;;;0.20;0.20;;;14.50;99.90;;;;;;5029783;28;20090;-76
2023/07/05 05:48:29;;;;;;;0.15;0.15;;;14.50;99.90;;;;;;5047826;28;20083;-76
2023/07/05 05:50:55;;;;;;;0.10;0.10;;;14.40;99.90;;;;;;5049529;28;20041;-77
2023/07/05 05:53:20;;;;;;;0.20;0.20;;;14.50;99.90;;;;;;5027772;28;20044;-76
2023/07/05 05:55:46;;;;;;;0.15;0.15;;;14.40;99.90;;;;;;5050045;28;20116;-77
2023/07/05 05:58:12;;;;;;;0.10;0.10;;;14.60;99.90;;;;;;5028895;28;20041;-77
2023/07/05 06:00:38;;;;;;;0.20;0.20;;;14.50;99.90;;;;;;5050998;28;20051;-76
2023/07/05 06:03:05;;;;;;;0.20;0.20;;;14.50;99.90;;;;;;5033630;28;20510;-76
2023/07/05 06:05:33;;;;;;;0.20;0.20;;;14.50;99.90;;;;;;5033888;28;20049;-76
2023/07/05 06:07:59;;;;;;;0.20;0.20;;;14.60;99.90;;;;;;5049256;28;20044;-78
2023/07/05 06:10:24;;;;;;;0.20;0.20;;;14.60;99.90;;;;;;5021942;28;20045;-77
2023/07/05 06:12:50;;;;;;;0.10;0.10;;;14.60;99.90;;;;;;5047818;28;20051;-77
2023/07/05 06:15:16;;;;;;;0.15;0.15;;;14.70;99.90;;;;;;5033846;28;20145;-77
2023/07/05 06:17:42;;;;;;;0.20;0.20;;;14.70;99.90;;;;;;5032673;28;20118;-77
2023/07/05 06:20:10;;;;;;;0.20;0.20;;;14.70;99.90;;;;;;5051777;28;20045;-78
2023/07/05 06:22:37;;;;;;;0.17;0.17;;;14.70;99.90;;;;;;5049164;28;20033;-78
2023/07/05 06:25:04;;;;;;;0.10;0.10;;;14.80;99.90;;;;;;5029547;28;20036;-77
2023/07/05 06:27:30;;;;;;;0.17;0.17;;;14.70;99.90;;;;;;5027417;28;20238;-78
2023/07/05 06:29:55;;;;;;;0.10;0.10;;;14.70;99.90;;;;;;5029984;28;20477;-78
2023/07/05 06:32:22;;;;;;;0.20;0.20;;;14.80;99.90;;;;;;5046543;28;20416;-77
2023/07/05 06:34:48;;;;;;;0.10;0.10;;;14.80;99.90;;;;;;5033755;28;20037;-77
2023/07/05 06:37:15;;;;;;;0.10;0.10;;;14.70;99.90;;;;;;5043899;28;20436;-78
2023/07/05 06:39:41;;;;;;;0.20;0.20;;;14.70;99.90;;;;;;5023514;28;20127;-78
2023/07/05 06:42:07;;;;;;;0.20;0.20;;;14.70;99.90;;;;;;5026668;28;20045;-79
2023/07/05 06:44:33;;;;;;;0.20;0.20;;;14.80;99.90;;;;;;5029781;28;20056;-79
2023/07/05 06:46:59;;;;;;;0.10;0.10;;;14.80;99.90;;;;;;5019523;28;20055;-80
2023/07/05 06:49:24;;;;;;;0.20;0.20;;;14.80;99.90;;;;;;5030351;28;20430;-79
2023/07/05 06:51:50;;;;;;;0.20;0.20;;;14.80;99.90;;;;;;5043595;28;20093;-79
2023/07/05 06:54:16;;;;;;;0.20;0.20;;;14.80;99.90;;;;;;5026875;28;20047;-80
2023/07/05 06:56:42;;;;;;;0.10;0.10;;;14.90;99.90;;;;;;5026601;28;20076;-79
2023/07/05 06:59:07;;;;;;;0.10;0.10;;;14.90;99.90;;;;;;5045206;28;20059;-79
2023/07/05 07:01:34;;;;;;;0.20;0.20;;;14.90;99.90;;;;;;5032232;28;20037;-79
2023/07/05 07:04:05;;;;;;;0.20;0.20;;;14.90;99.90;;;;;;5045636;28;20102;-78
2023/07/05 07:06:31;;;;;;;0.20;0.20;;;14.90;99.90;;;;;;5023616;28;20098;-78
2023/07/05 07:08:58;;;;;;;0.10;0.10;;;14.80;99.90;;;;;;5027891;28;20071;-79
2023/07/05 07:11:24;;;;;;;0.20;0.20;;;14.80;99.90;;;;;;5033144;28;20044;-78
2023/07/05 07:13:49;;;;;;;0.20;0.20;;;14.80;99.90;;;;;;5047944;28;20044;-79
2023/07/05 07:16:16;;;;;;;0.10;0.10;;;14.80;99.90;;;;;;5032283;28;20048;-79
2023/07/05 07:18:47;;;;;;;0.20;0.20;;;14.90;99.90;;;;;;5032122;28;20049;-78
2023/07/05 07:21:13;;;;;;;0.20;0.20;;;14.90;99.90;;;;;;5032148;28;20199;-80
2023/07/05 07:23:39;;;;;;;0.20;0.20;;;15.00;99.90;;;;;;5030122;28;20060;-78
2023/07/05 07:26:11;;;;;;;0.30;0.30;;;15.00;99.90;;;;;;5030174;28;20083;-78
2023/07/05 07:28:37;;;;;;;0.20;0.20;;;15.10;99.90;;;;;;5040430;28;20106;-79
2023/07/05 07:31:11;;;;;;;0.30;0.25;;;15.20;99.90;;;;;;5027982;28;20041;-78
2023/07/05 07:33:37;;;;;;;0.20;0.20;;;15.30;99.90;;;;;;5031098;28;20446;-79
2023/07/05 07:36:11;;;;;;;0.10;0.10;;;15.30;99.90;;;;;;5031275;28;20033;-79
2023/07/05 07:38:38;;;;;;;0.20;0.20;;;15.30;99.90;;;;;;5032126;28;20092;-79
2023/07/05 07:41:04;;;;;;;0.20;0.20;;;15.30;99.90;;;;;;5049652;28;20410;-80
2023/07/05 07:43:30;;;;;;;0.10;0.10;;;15.20;99.90;;;;;;5045243;28;20052;-81
2023/07/05 07:45:56;;;;;;;0.20;0.20;;;15.20;99.90;;;;;;5032427;28;20037;-79
2023/07/05 07:48:21;;;;;;;0.20;0.20;;;15.20;99.90;;;;;;5029931;28;20473;-78
2023/07/05 07:50:50;;;;;;;0.10;0.10;;;15.30;99.90;;;;;;5029703;28;20043;-79
2023/07/05 07:53:16;;;;;;;0.10;0.10;;;15.30;99.90;;;;;;5012366;28;20046;-79
2023/07/05 07:55:42;;;;;;;0.13;0.13;;;15.30;99.90;;;;;;5039068;28;20608;-79
2023/07/05 07:58:08;;;;;;;0.20;0.20;;;15.30;99.90;;;;;;5031189;28;20037;-81
2023/07/05 08:00:34;;;;;;;0.10;0.10;;;15.30;99.90;;;;;;5047481;28;20033;-81
2023/07/05 08:03:00;;;;;;;0.20;0.20;;;15.20;99.90;;;;;;5027296;28;20045;-80
2023/07/05 08:05:26;;;;;;;0.10;0.10;;;15.10;99.90;;;;;;5029274;28;20102;-78
2023/07/05 08:07:51;;;;;;;0.15;0.15;;;15.00;99.90;;;;;;5030462;28;20048;-80
2023/07/05 08:10:17;;;;;;;0.20;0.20;;;14.90;99.90;;;;;;5046810;28;20040;-79
2023/07/05 08:12:43;;;;;;;0.17;0.17;;;14.80;99.90;;;;;;5031037;28;20056;-80
2023/07/05 08:15:09;;;;;;;0.10;0.10;;;14.70;99.90;;;;;;5032221;28;20041;-79
2023/07/05 08:17:35;;;;;;;0.20;0.20;;;14.60;99.90;;;;;;5027007;28;20052;-79
2023/07/05 08:20:00;;;;;;;0.10;0.10;;;14.50;99.90;;;;;;5028359;28;20037;-80
2023/07/05 08:22:26;;;;;;;0.15;0.15;;;14.30;99.90;;;;;;5050449;28;20124;-79
2023/07/05 08:24:52;;;;;;;0.20;0.20;;;14.20;99.90;;;;;;5033265;28;20047;-81
2023/07/05 08:27:18;;;;;;;0.20;0.20;;;14.10;99.90;;;;;;5033724;28;20125;-80
2023/07/05 08:29:44;;;;;;;0.10;0.10;;;14.00;99.90;;;;;;5049014;28;20126;-80
2023/07/05 08:32:09;;;;;;;0.20;0.20;;;13.90;99.90;;;;;;5046040;28;20516;-79
2023/07/05 08:34:36;;;;;;;0.17;0.17;;;13.80;99.90;;;;;;5035033;28;20045;-80
2023/07/05 08:37:03;;;;;;;0.13;0.13;;;13.60;99.90;;;;;;5053399;28;20120;-79
2023/07/05 08:39:30;;;;;;;0.20;0.20;;;13.50;99.90;;;;;;5034923;28;20481;-80
2023/07/05 08:42:27;;;;;;;0.20;0.20;;;13.40;99.90;;;;;;5033457;28;20423;-79
2023/07/05 08:45:22;;;;;;;0.20;0.20;;;13.30;99.90;;;;;;5015172;28;20045;-78
2023/07/05 08:47:54;;;;;;;0.10;0.10;;;13.20;99.90;;;;;;5020399;28;20124;-80
2023/07/05 08:50:35;;;;;;;0.20;0.20;;;13.20;99.90;;;;;;5053446;28;20045;-77
2023/07/05 08:53:09;;;;;;;0.10;0.10;;;13.10;99.90;;;;;;5049547;28;20045;-77
2023/07/05 08:56:09;;;;;;;0.10;0.10;;;13.00;99.90;;;;;;5025919;28;20050;-78
2023/07/05 08:58:45;;;;;;;0.20;0.20;;;13.00;99.90;;;;;;5033740;28;20041;-80
2023/07/05 09:01:18;;;;;;;0.10;0.10;;;13.00;99.90;;;;;;5031766;28;20068;-79
2023/07/05 09:03:43;;;;;;;0.20;0.20;;;12.90;99.90;;;;;;5050909;28;20508;-77
2023/07/05 09:06:25;;;;;;;0.10;0.10;;;12.90;99.90;;;;;;5048692;28;20127;-81
2023/07/05 09:09:21;;;;;;;0.20;0.20;;;12.80;99.90;;;;;;5030976;28;20516;-81
2023/07/05 09:12:14;;;;;;;0.20;0.20;;;12.70;99.90;;;;;;5016013;28;20551;-82
2023/07/05 09:15:22;;;;;;;0.20;0.20;;;12.70;99.90;;;;;;5032728;28;20040;-81
2023/07/05 09:17:55;;;;;;;0.10;0.10;;;12.70;99.90;;;;;;5047636;28;20040;-82
2023/07/05 09:20:58;;;;;;;0.20;0.20;;;12.70;99.90;;;;;;5032049;28;20052;-83
2023/07/05 09:23:38;;;;;;;0.10;0.10;;;12.60;99.90;;;;;;5031142;28;20057;-82
2023/07/05 09:26:14;;;;;;;0.10;0.10;;;12.60;99.90;;;;;;5046238;28;20049;-84
2023/07/05 09:28:47;;;;;;;0.20;0.20;;;12.60;99.90;;;;;;5050907;28;20102;-84
2023/07/05 09:31:14;;;;;;;0.20;0.20;;;12.50;99.90;;;;;;5026849;28;20123;-83
2023/07/05 09:33:51;;;;;;;0.20;0.20;;;12.50;99.90;;;;;;5027124;28;20052;-82
2023/07/05 09:36:24;;;;;;;0.20;0.20;;;12.50;99.90;;;;;;5030941;28;20056;-85
2023/07/05 09:39:16;;;;;;;0.10;0.10;;;12.60;99.90;;;;;;5034871;28;20095;-82
2023/07/05 09:41:48;;;;;;;0.20;0.20;;;12.60;99.90;;;;;;5033646;28;20045;-83
2023/07/05 09:44:15;;;;;;;;;;;12.70;99.90;;;;;;5032217;28;20088;-82
2023/07/05 09:46:42;;;;;;;0.20;0.20;;;12.70;99.90;;;;;;5029856;28;19964;-83
2023/07/05 09:49:13;;;;;;;0.20;0.20;;;12.70;99.90;;;;;;5053296;28;20053;-89
2023/07/05 09:51:41;;;;;;;0.17;0.17;;;12.80;99.90;;;;;;5026386;28;20048;-83
2023/07/05 09:54:25;;;;;;;0.20;0.20;;;13.10;99.90;;;;;;5046617;28;20047;-84
2023/07/05 09:57:04;;;;;;;0.20;0.20;;;13.00;99.90;;;;;;5031858;28;20067;-79
2023/07/05 09:59:30;;;;;;;0.10;0.10;;;13.00;99.90;;;;;;5048905;28;20069;-87
2023/07/05 10:02:03;;;;;;;0.20;0.20;;;13.10;99.90;;;;;;5031900;28;20048;-85
2023/07/05 10:04:29;;;;;;;0.20;0.20;;;13.20;99.90;;;;;;5050810;28;20106;-83
2023/07/05 10:06:56;;;;;;;0.20;0.20;;;13.20;99.90;;;;;;5047511;28;20041;-82
2023/07/05 10:09:24;;;;;;;0.20;0.20;;;13.20;99.90;;;;;;5031381;28;20033;-81
2023/07/05 10:11:57;;;;;;;0.10;0.10;;;13.30;99.90;;;;;;5029921;28;20111;-82
2023/07/05 10:14:33;;;;;;;0.17;0.17;;;13.40;99.90;;;;;;5028405;28;20493;-83
2023/07/05 10:17:07;;;;;;;0.10;0.10;;;13.40;99.90;;;;;;5028982;28;20045;-81
2023/07/05 10:19:39;;;;;;;0.20;0.20;;;13.50;99.90;;;;;;5038323;28;20048;-80
2023/07/05 10:22:09;;;;;;;0.20;0.20;;;13.60;99.90;;;;;;5029348;28;20083;-83
2023/07/05 10:24:50;;;;;;;0.20;0.20;;;13.70;99.90;;;;;;5021499;28;20364;-79
2023/07/05 10:27:28;;;;;;;0.20;0.20;;;13.70;99.90;;;;;;5029619;28;20060;-79
2023/07/05 10:30:13;;;;;;;0.20;0.20;;;13.90;99.90;;;;;;5029385;28;20124;-80
2023/07/05 10:32:39;;;;;;;0.20;0.20;;;14.00;99.90;;;;;;5035517;28;20092;-80
2023/07/05 10:35:23;;;;;;;0.20;0.20;;;14.20;99.90;;;;;;5049120;28;20393;-78
2023/07/05 10:37:50;;;;;;;0.15;0.15;;;14.30;99.90;;;;;;5034111;28;20534;-80
2023/07/05 10:40:16;;;;;;;0.15;0.15;;;14.50;99.90;;;;;;5046035;28;20408;-79
2023/07/05 10:42:49;;;;;;;0.20;0.20;;;14.60;99.90;;;;;;5043592;28;20049;-79
2023/07/05 10:45:18;;;;;;;0.20;0.20;;;14.70;99.90;;;;;;5048949;28;20044;-79
2023/07/05 10:47:47;;;;;;;0.15;0.15;;;14.80;99.90;;;;;;5049075;28;20575;-80
2023/07/05 10:50:15;;;;;;;0.20;0.20;;;14.80;99.90;;;;;;5049979;28;20045;-80
2023/07/05 10:52:49;;;;;;;0.20;0.20;;;14.90;99.90;;;;;;5048736;28;20049;-79
2023/07/05 10:55:20;;;;;;;0.10;0.10;;;15.00;99.90;;;;;;5048023;28;20071;-81
2023/07/05 10:58:00;;;;;;;0.20;0.20;;;15.00;99.90;;;;;;5060516;28;20398;-80
2023/07/05 11:00:37;;;;;;;0.20;0.20;;;15.10;99.90;;;;;;5029199;28;20191;-79
2023/07/05 11:03:31;;;;;;;0.10;0.10;;;15.10;99.90;;;;;;5034117;28;20488;-79
2023/07/05 11:06:00;;;;;;;0.20;0.20;;;15.20;99.90;;;;;;5048470;28;20524;-80
2023/07/05 11:08:33;;;;;;;0.20;0.20;;;15.30;99.90;;;;;;5049019;28;20041;-79
2023/07/05 11:11:01;;;;;;;0.20;0.20;;;15.40;99.90;;;;;;5048082;28;20055;-80
2023/07/05 11:13:28;;;;;;;0.10;0.10;;;15.50;99.90;;;;;;5049102;28;20052;-80
2023/07/05 11:15:55;;;;;;;0.20;0.20;;;15.70;99.90;;;;;;5067136;28;20048;-80
2023/07/05 11:18:22;;;;;;;0.20;0.20;;;15.80;99.90;;;;;;5048626;28;20417;-79
2023/07/05 11:20:54;;;;;;;0.20;0.20;;;15.90;99.90;;;;;;5050385;28;20041;-80
2023/07/05 11:23:44;;;;;;;0.10;0.10;;;16.10;99.90;;;;;;5048819;28;20037;-80
2023/07/05 11:26:31;;;;;;;0.10;0.10;;;16.30;99.90;;;;;;5045935;28;20087;-81
2023/07/05 11:28:57;;;;;;;0.15;0.15;;;16.50;99.90;;;;;;5041131;28;20040;-81
2023/07/05 11:31:29;;;;;;;0.20;0.20;;;16.60;99.90;;;;;;5047852;28;20114;-79
2023/07/05 11:34:29;;;;;;;0.10;0.10;;;16.70;99.90;;;;;;5036121;28;20060;-80
2023/07/05 11:37:01;;;;;;;0.20;0.20;;;16.80;99.90;;;;;;5040164;28;20041;-80
2023/07/05 11:39:35;;;;;;;0.20;0.20;;;16.80;99.90;;;;;;5048095;28;20451;-79
2023/07/05 11:42:13;;;;;;;0.20;0.20;;;16.90;99.90;;;;;;5045626;28;20045;-80
2023/07/05 11:45:09;;;;;;;0.20;0.20;;;17.00;99.90;;;;;;5044253;28;20045;-80
2023/07/05 11:47:35;;;;;;;0.20;0.20;;;17.00;99.90;;;;;;5047057;28;20397;-81
2023/07/05 11:50:13;;;;;;;0.20;0.20;;;17.10;99.90;;;;;;5043464;28;20052;-80
2023/07/05 11:52:47;;;;;;;0.20;0.20;;;17.00;99.90;;;;;;5046662;28;20055;-81
2023/07/05 11:55:28;;;;;;;0.20;0.20;;;16.90;99.90;;;;;;5044311;28;20066;-80
2023/07/05 11:58:00;;;;;;;0.20;0.20;;;17.00;99.90;;;;;;5043306;28;20064;-81
2023/07/05 12:00:42;;;;;;;0.20;0.20;;;16.90;99.90;;;;;;5044119;28;20072;-79
2023/07/05 12:03:19;;;;;;;0.17;0.17;;;16.90;99.90;;;;;;5046633;28;20037;-81
2023/07/05 12:05:53;;;;;;;0.10;0.10;;;17.00;99.90;;;;;;5047530;28;20040;-80
2023/07/05 12:08:25;;;;;;;0.17;0.17;;;17.10;99.90;;;;;;5045078;28;20087;-81
2023/07/05 12:10:55;;;;;;;0.15;0.15;;;17.10;99.90;;;;;;5045823;28;20041;-81
2023/07/05 12:13:24;;;;;;;0.20;0.20;;;17.20;99.90;;;;;;5044788;28;20072;-81
2023/07/05 12:15:50;;;;;;;0.20;0.20;;;17.20;99.90;;;;;;5046946;28;20069;-81
2023/07/05 12:18:16;;;;;;;0.10;0.10;;;17.10;99.90;;;;;;5047088;28;20041;-80
2023/07/05 12:20:44;;;;;;;0.10;0.10;;;17.00;99.90;;;;;;5048660;28;20378;-80
2023/07/05 12:23:16;;;;;;;0.20;0.20;;;16.90;99.90;;;;;;5045583;28;20045;-79
2023/07/05 12:25:49;;;;;;;0.20;0.20;;;16.80;99.90;;;;;;5038939;28;20034;-81
2023/07/05 12:28:21;;;;;;;0.20;0.20;;;16.50;99.90;;;;;;5045967;28;20051;-81
2023/07/05 12:30:48;;;;;;;0.20;0.20;;;16.20;99.90;;;;;;5044005;28;20496;-84
2023/07/05 12:33:35;;;;;;;0.20;0.20;;;16.10;99.90;;;;;;5038337;28;20083;-80
2023/07/05 12:36:09;;;;;;;0.20;0.20;;;15.90;99.90;;;;;;5046061;28;20115;-80
2023/07/05 12:38:37;;;;;;;0.20;0.20;;;15.70;99.90;;;;;;5039096;28;20044;-80
2023/07/05 12:41:05;;;;;;;0.17;0.17;;;15.60;99.90;;;;;;5040966;28;20440;-81
2023/07/05 12:43:33;;;;;;;0.13;0.13;;;15.40;99.90;;;;;;5044257;28;20485;-80
2023/07/05 12:46:15;;;;;;;0.10;0.10;;;15.30;99.90;;;;;;5043141;28;20642;-80
2023/07/05 12:48:41;;;;;;;0.20;0.20;;;15.10;99.90;;;;;;5038184;28;20044;-80
2023/07/05 12:51:21;;;;;;;0.20;0.20;;;14.90;99.90;;;;;;5038973;28;20048;-81
2023/07/05 12:53:48;;;;;;;0.10;0.10;;;14.80;99.90;;;;;;5047725;28;20124;-81
2023/07/05 12:56:21;;;;;;;0.20;0.20;;;14.70;99.90;;;;;;5047097;28;20037;-80
2023/07/05 12:58:47;;;;;;;0.20;0.20;;;14.50;99.90;;;;;;5040597;28;20073;-81
2023/07/05 13:01:13;;;;;;;0.20;0.20;;;14.50;99.90;;;;;;5043951;28;20574;-80
2023/07/05 13:03:46;;;;;;;0.10;0.10;;;14.40;99.90;;;;;;5040374;28;20037;-78